Circle Line Xii — WM8392 — position and weather

sailwx.info

Track history (hours):
 
Tides and Currents Weather Stations Pressure Air Temp Water Temp Dewpoint Dewpoint Depression Visibility Wind Speed Wind Dir Waves Ship Positions

Circle Line Xii

Owner: CIRCLE LINE SIGHTSEEING YACHTS, NEW YORK, NY. More information available from US FCC via Universal Licensing System and Coast Guard Vessel Documentation Center.

Last reported at 2016-Jun-29 19:14 UTC. Time now 2016-Jun-30 14:17 UTC.
Position N 40°46' W 073°57'.

MMSI: 367032250.

Date/timePositionNaut miles runAvg speedWind from/ knotsBaromVisibWave heightAir tempDewpointWater temp
2016-Jun-29 19:14N 40°46' W 073°57'5 7.1
2016-Jun-29 18:33N 40°42' W 074°02'4 3.6
2016-Jun-29 17:31N 40°46' W 074°00'2 1.0
2016-Jun-29 15:18N 40°46' W 073°57'6 8.3
2016-Jun-29 14:33N 40°41' W 074°03'5 5.1
2016-Jun-29 13:33N 40°46' W 074°00'0 0.0
2016-Jun-29 12:33N 40°46' W 074°00'0 0.0
2016-Jun-28 22:12N 40°46' W 074°00'3 4.8
2016-Jun-28 21:34N 40°43' W 073°58'3 2.9
2016-Jun-28 20:32N 40°46' W 074°00'0 0.0
2016-Jun-28 19:32N 40°46' W 074°00'0 0.0
2016-Jun-28 18:34N 40°46' W 074°00'0 0.0
2016-Jun-28 17:30N 40°46' W 074°00'1 1.0
2016-Jun-28 16:33N 40°45' W 074°01'4 4.0
2016-Jun-28 15:33N 40°41' W 074°02'1 0.1
2016-Jun-28 00:33N 40°42' W 074°01'2 1.5
2016-Jun-27 23:33N 40°41' W 074°03'5 4.0
2016-Jun-27 22:19N 40°46' W 074°00'0 0.0
2016-Jun-27 21:31N 40°46' W 074°00'0 0.0
2016-Jun-27 20:32N 40°46' W 074°00'7 7.1
2016-Jun-27 19:33N 40°39' W 074°02'7 2.2
2016-Jun-27 16:33N 40°46' W 074°01'8 7.7
2016-Jun-27 15:33N 40°38' W 074°03'8 0.2
2016-Jun-25 20:34N 40°46' W 074°01'7 6.6
2016-Jun-25 19:34N 40°39' W 074°02'7 0.3
2016-Jun-24 20:34N 40°46' W 074°00'6 6.0
2016-Jun-24 19:34N 40°40' W 074°01'2 0.1
2016-Jun-24 00:33N 40°42' W 074°00'1 1.4
2016-Jun-23 23:33N 40°42' W 074°02'4 4.0
2016-Jun-23 22:31N 40°46' W 074°00'3 3.2
2016-Jun-23 21:33N 40°43' W 073°58'3 2.9
2016-Jun-23 20:29N 40°46' W 074°00'0 0.0
2016-Jun-23 19:32N 40°46' W 074°00'1 0.5
2016-Jun-23 18:33N 40°45' W 074°01'1 0.5
2016-Jun-23 17:32N 40°46' W 074°00'3 3.0
2016-Jun-23 16:33N 40°43' W 074°01'1 1.1
2016-Jun-23 15:34N 40°42' W 074°02'4 0.3
2016-Jun-23 01:04N 40°46' W 074°00'4 7.7
2016-Jun-23 00:33N 40°42' W 074°01'1 0.7
2016-Jun-22 23:33N 40°42' W 074°02'4 4.2
2016-Jun-22 22:31N 40°46' W 074°00'0 0.0
2016-Jun-22 21:31N 40°46' W 074°00'1 1.0
2016-Jun-22 20:33N 40°45' W 074°01'1 0.9
2016-Jun-22 19:33N 40°46' W 074°00'2 1.0
2016-Jun-22 17:19N 40°46' W 073°57'6 7.0
2016-Jun-22 16:33N 40°42' W 074°02'4 4.4
2016-Jun-22 15:32N 40°46' W 074°00'0 0.0
2016-Jun-21 22:18N 40°46' W 074°00'3 4.1
2016-Jun-21 21:33N 40°43' W 073°58'3 3.0
2016-Jun-21 20:32N 40°46' W 074°00'0 0.0
2016-Jun-21 19:32N 40°46' W 074°00'1 0.8
2016-Jun-21 18:33N 40°45' W 074°01'1 0.8
2016-Jun-21 17:33N 40°46' W 074°00'2 2.2
2016-Jun-21 16:33N 40°44' W 074°01'1 1.4
2016-Jun-21 15:33N 40°42' W 074°02'4 3.6
2016-Jun-21 14:32N 40°46' W 074°00'0 0.0
2016-Jun-21 13:32N 40°46' W 074°00'0 0.0
2016-Jun-20 22:13N 40°46' W 074°00'3 5.2
2016-Jun-20 21:33N 40°43' W 073°59'3 3.3
2016-Jun-20 20:31N 40°46' W 074°00'0 0.0
2016-Jun-20 19:31N 40°46' W 074°00'1 0.8
2016-Jun-20 18:33N 40°45' W 074°01'1 0.8
2016-Jun-20 17:33N 40°46' W 074°00'2 1.8
2016-Jun-20 16:33N 40°44' W 074°01'2 2.4
2016-Jun-20 15:33N 40°42' W 074°02'4 4.1
2016-Jun-20 14:32N 40°46' W 074°00'  
Track history (hours):
 
Tides and Currents Weather Stations Pressure Air Temp Water Temp Dewpoint Dewpoint Depression Visibility Wind Speed Wind Dir Waves Ship Positions

Circle Line Xii

Owner: CIRCLE LINE SIGHTSEEING YACHTS, NEW YORK, NY. More information available from US FCC via Universal Licensing System and Coast Guard Vessel Documentation Center.

Last reported at 2016-Jun-29 19:14 UTC. Time now 2016-Jun-30 14:17 UTC.
Position N 40°46' W 073°57'.

MMSI: 367032250.

Date/timePositionNaut miles runAvg speedWind from/ knotsBaromVisibWave heightAir tempDewpointWater temp
2016-Jun-29 19:14N 40°46' W 073°57'5 7.1
2016-Jun-29 18:33N 40°42' W 074°02'4 3.6
2016-Jun-29 17:31N 40°46' W 074°00'2 1.0
2016-Jun-29 15:18N 40°46' W 073°57'6 8.3
2016-Jun-29 14:33N 40°41' W 074°03'5 5.1
2016-Jun-29 13:33N 40°46' W 074°00'0 0.0
2016-Jun-29 12:33N 40°46' W 074°00'0 0.0
2016-Jun-28 22:12N 40°46' W 074°00'3 4.8
2016-Jun-28 21:34N 40°43' W 073°58'3 2.9
2016-Jun-28 20:32N 40°46' W 074°00'0 0.0
2016-Jun-28 19:32N 40°46' W 074°00'0 0.0
2016-Jun-28 18:34N 40°46' W 074°00'0 0.0
2016-Jun-28 17:30N 40°46' W 074°00'1 1.0
2016-Jun-28 16:33N 40°45' W 074°01'4 4.0
2016-Jun-28 15:33N 40°41' W 074°02'1 0.1
2016-Jun-28 00:33N 40°42' W 074°01'2 1.5
2016-Jun-27 23:33N 40°41' W 074°03'5 4.0
2016-Jun-27 22:19N 40°46' W 074°00'0 0.0
2016-Jun-27 21:31N 40°46' W 074°00'0 0.0
2016-Jun-27 20:32N 40°46' W 074°00'7 7.1
2016-Jun-27 19:33N 40°39' W 074°02'7 2.2
2016-Jun-27 16:33N 40°46' W 074°01'8 7.7
2016-Jun-27 15:33N 40°38' W 074°03'8 0.2
2016-Jun-25 20:34N 40°46' W 074°01'7 6.6
2016-Jun-25 19:34N 40°39' W 074°02'7 0.3
2016-Jun-24 20:34N 40°46' W 074°00'6 6.0
2016-Jun-24 19:34N 40°40' W 074°01'2 0.1
2016-Jun-24 00:33N 40°42' W 074°00'1 1.4
2016-Jun-23 23:33N 40°42' W 074°02'4 4.0
2016-Jun-23 22:31N 40°46' W 074°00'3 3.2
2016-Jun-23 21:33N 40°43' W 073°58'3 2.9
2016-Jun-23 20:29N 40°46' W 074°00'0 0.0
2016-Jun-23 19:32N 40°46' W 074°00'1 0.5
2016-Jun-23 18:33N 40°45' W 074°01'1 0.5
2016-Jun-23 17:32N 40°46' W 074°00'3 3.0
2016-Jun-23 16:33N 40°43' W 074°01'1 1.1
2016-Jun-23 15:34N 40°42' W 074°02'4 0.3
2016-Jun-23 01:04N 40°46' W 074°00'4 7.7
2016-Jun-23 00:33N 40°42' W 074°01'1 0.7
2016-Jun-22 23:33N 40°42' W 074°02'4 4.2
2016-Jun-22 22:31N 40°46' W 074°00'0 0.0
2016-Jun-22 21:31N 40°46' W 074°00'1 1.0
2016-Jun-22 20:33N 40°45' W 074°01'1 0.9
2016-Jun-22 19:33N 40°46' W 074°00'2 1.0
2016-Jun-22 17:19N 40°46' W 073°57'6 7.0
2016-Jun-22 16:33N 40°42' W 074°02'4 4.4
2016-Jun-22 15:32N 40°46' W 074°00'0 0.0
2016-Jun-21 22:18N 40°46' W 074°00'3 4.1
2016-Jun-21 21:33N 40°43' W 073°58'3 3.0
2016-Jun-21 20:32N 40°46' W 074°00'0 0.0
2016-Jun-21 19:32N 40°46' W 074°00'1 0.8
2016-Jun-21 18:33N 40°45' W 074°01'1 0.8
2016-Jun-21 17:33N 40°46' W 074°00'2 2.2
2016-Jun-21 16:33N 40°44' W 074°01'1 1.4
2016-Jun-21 15:33N 40°42' W 074°02'4 3.6
2016-Jun-21 14:32N 40°46' W 074°00'0 0.0
2016-Jun-21 13:32N 40°46' W 074°00'0 0.0
2016-Jun-20 22:13N 40°46' W 074°00'3 5.2
2016-Jun-20 21:33N 40°43' W 073°59'3 3.3
2016-Jun-20 20:31N 40°46' W 074°00'0 0.0
2016-Jun-20 19:31N 40°46' W 074°00'1 0.8
2016-Jun-20 18:33N 40°45' W 074°01'1 0.8
2016-Jun-20 17:33N 40°46' W 074°00'2 1.8
2016-Jun-20 16:33N 40°44' W 074°01'2 2.4
2016-Jun-20 15:33N 40°42' W 074°02'4 4.1
2016-Jun-20 14:32N 40°46' W 074°00'  

Dump ship's entire track history